createdAt,value
2023-03-03T00:00:20.238Z,934.29
2023-03-03T00:01:20.265Z,934.30
2023-03-03T00:02:20.289Z,934.32
2023-03-03T00:03:20.332Z,934.30
2023-03-03T00:04:20.318Z,934.33
2023-03-03T00:05:20.321Z,934.33
2023-03-03T00:06:20.374Z,934.36
2023-03-03T00:07:20.382Z,934.38
2023-03-03T00:08:20.379Z,934.44
2023-03-03T00:09:20.413Z,934.37
2023-03-03T00:10:20.425Z,934.39
2023-03-03T00:11:20.430Z,934.44
2023-03-03T00:12:20.446Z,934.45
2023-03-03T00:13:20.462Z,934.48
2023-03-03T00:14:20.479Z,934.48
2023-03-03T00:15:20.501Z,934.49
2023-03-03T00:16:20.526Z,934.51
2023-03-03T00:17:20.529Z,934.50
2023-03-03T00:18:20.539Z,934.50
2023-03-03T00:19:20.569Z,934.48
2023-03-03T00:20:20.619Z,934.48
2023-03-03T00:21:20.610Z,934.47
2023-03-03T00:22:20.663Z,934.45
2023-03-03T00:23:20.629Z,934.48
2023-03-03T00:24:20.648Z,934.46
2023-03-03T00:25:20.698Z,934.46
2023-03-03T00:26:20.675Z,934.48
2023-03-03T00:27:20.694Z,934.48
2023-03-03T00:28:20.744Z,934.49
2023-03-03T00:29:20.750Z,934.52
2023-03-03T00:30:20.735Z,934.52
2023-03-03T00:31:20.883Z,934.52
2023-03-03T00:32:20.801Z,934.52
2023-03-03T00:33:20.795Z,934.47
2023-03-03T00:34:20.815Z,934.47
2023-03-03T00:35:20.865Z,934.50
2023-03-03T00:36:20.844Z,934.48
2023-03-03T00:37:20.854Z,934.47
2023-03-03T00:38:20.904Z,934.50
2023-03-03T00:39:20.897Z,934.49
2023-03-03T00:40:20.913Z,934.48
2023-03-03T00:41:20.922Z,934.55
2023-03-03T00:42:20.945Z,934.56
2023-03-03T00:43:20.968Z,934.53
2023-03-03T00:44:20.979Z,934.56
2023-03-03T00:45:20.989Z,934.60
2023-03-03T00:46:21.119Z,934.58
2023-03-03T00:47:21.036Z,934.58
2023-03-03T00:48:21.045Z,934.55
2023-03-03T00:49:21.070Z,934.57
2023-03-03T00:50:21.083Z,934.58
2023-03-03T00:51:21.097Z,934.62
2023-03-03T00:52:21.109Z,934.60
2023-03-03T00:53:21.132Z,934.59
2023-03-03T00:54:21.159Z,934.63
2023-03-03T00:55:21.156Z,934.61
2023-03-03T00:56:21.179Z,934.57
2023-03-03T00:57:21.188Z,934.62
2023-03-03T00:58:21.214Z,934.59
2023-03-03T00:59:21.220Z,934.60
2023-03-03T01:00:21.249Z,934.62
2023-03-03T01:01:21.353Z,934.63
2023-03-03T01:02:21.373Z,934.56
2023-03-03T01:03:21.288Z,934.59
2023-03-03T01:04:21.312Z,934.62
2023-03-03T01:05:21.329Z,934.63
2023-03-03T01:06:21.345Z,934.65
2023-03-03T01:07:21.355Z,934.68
2023-03-03T01:08:21.376Z,934.67
2023-03-03T01:09:21.387Z,934.65
2023-03-03T01:10:21.436Z,934.69
2023-03-03T01:11:21.428Z,934.66
2023-03-03T01:12:21.449Z,934.70
2023-03-03T01:13:21.453Z,934.75
2023-03-03T01:14:21.569Z,934.72
2023-03-03T01:15:21.488Z,934.71
2023-03-03T01:16:21.742Z,934.73
2023-03-03T01:17:21.524Z,934.71
2023-03-03T01:18:21.545Z,934.74
2023-03-03T01:19:21.561Z,934.71
2023-03-03T01:20:21.583Z,934.72
2023-03-03T01:21:21.594Z,934.71
2023-03-03T01:22:21.610Z,934.73
2023-03-03T01:23:21.638Z,934.75
2023-03-03T01:24:21.637Z,934.77
2023-03-03T01:25:21.653Z,934.81
2023-03-03T01:26:21.743Z,934.80
2023-03-03T01:27:21.687Z,934.81
2023-03-03T01:28:21.702Z,934.86
2023-03-03T01:29:21.735Z,934.84
2023-03-03T01:30:21.743Z,934.83
2023-03-03T01:31:21.767Z,934.86
2023-03-03T01:32:21.797Z,934.82
2023-03-03T01:33:21.801Z,934.80
2023-03-03T01:34:21.816Z,934.78
2023-03-03T01:35:21.885Z,934.78
2023-03-03T01:36:21.835Z,934.78
2023-03-03T01:37:21.858Z,934.80
2023-03-03T01:38:21.877Z,934.81
2023-03-03T01:39:21.894Z,934.81
2023-03-03T01:40:21.902Z,934.85
2023-03-03T01:41:21.923Z,934.82
2023-03-03T01:42:21.963Z,934.83
2023-03-03T01:43:21.952Z,934.83
2023-03-03T01:44:21.975Z,934.86
2023-03-03T01:45:21.992Z,934.80
2023-03-03T01:46:22.044Z,934.79
2023-03-03T01:47:22.019Z,934.81
2023-03-03T01:48:22.035Z,934.83
2023-03-03T01:49:22.100Z,934.80
2023-03-03T01:50:22.068Z,934.82
2023-03-03T01:51:22.086Z,934.83
2023-03-03T01:52:22.101Z,934.85
2023-03-03T01:53:22.124Z,934.83
2023-03-03T01:54:22.142Z,934.87
2023-03-03T01:55:22.158Z,934.86
2023-03-03T01:56:22.168Z,934.86
2023-03-03T01:57:22.191Z,934.78
2023-03-03T01:58:22.233Z,934.83
2023-03-03T01:59:22.224Z,934.79
2023-03-03T02:00:22.234Z,934.79
2023-03-03T02:01:22.372Z,934.79
2023-03-03T02:02:22.265Z,934.78
2023-03-03T02:03:22.293Z,934.72
2023-03-03T02:04:22.302Z,934.74
2023-03-03T02:05:22.340Z,934.74
2023-03-03T02:06:22.341Z,934.71
2023-03-03T02:07:22.350Z,934.75
2023-03-03T02:08:22.378Z,934.76
2023-03-03T02:09:22.382Z,934.76
2023-03-03T02:10:22.406Z,934.77
2023-03-03T02:11:22.425Z,934.77
2023-03-03T02:12:22.446Z,934.78
2023-03-03T02:13:22.464Z,934.78
2023-03-03T02:14:22.509Z,934.75
2023-03-03T02:15:22.489Z,934.74
2023-03-03T02:16:22.582Z,934.75
2023-03-03T02:17:22.517Z,934.73
2023-03-03T02:18:22.540Z,934.73
2023-03-03T02:19:22.560Z,934.68
2023-03-03T02:20:22.576Z,934.71
2023-03-03T02:21:22.588Z,934.71
2023-03-03T02:22:22.603Z,934.69
2023-03-03T02:23:22.637Z,934.69
2023-03-03T02:24:22.643Z,934.69
2023-03-03T02:25:22.653Z,934.65
2023-03-03T02:26:22.671Z,934.62
2023-03-03T02:27:22.687Z,934.59
2023-03-03T02:28:22.704Z,934.55
2023-03-03T02:29:22.719Z,934.54
2023-03-03T02:30:22.757Z,934.56
2023-03-03T02:31:22.822Z,934.55
2023-03-03T02:32:22.801Z,934.55
2023-03-03T02:33:22.797Z,934.60
2023-03-03T02:34:22.817Z,934.57
2023-03-03T02:35:22.856Z,934.61
2023-03-03T02:36:22.836Z,934.61
2023-03-03T02:37:22.854Z,934.62
2023-03-03T02:38:22.881Z,934.62
2023-03-03T02:39:22.885Z,934.60
2023-03-03T02:40:22.907Z,934.60
2023-03-03T02:41:22.937Z,934.57
2023-03-03T02:42:22.965Z,934.55
2023-03-03T02:43:22.951Z,934.56
2023-03-03T02:44:22.992Z,934.57
2023-03-03T02:45:23.048Z,934.51
2023-03-03T02:46:23.028Z,934.52
2023-03-03T02:47:23.014Z,934.49
2023-03-03T02:48:23.033Z,934.52
2023-03-03T02:49:23.049Z,934.52
2023-03-03T02:50:23.063Z,934.51
2023-03-03T02:51:23.080Z,934.48
2023-03-03T02:52:23.098Z,934.48
2023-03-03T02:53:23.127Z,934.48
2023-03-03T02:54:23.133Z,934.43
2023-03-03T02:55:23.152Z,934.46
2023-03-03T02:56:23.180Z,934.41
2023-03-03T02:57:23.191Z,934.38
2023-03-03T02:58:23.199Z,934.41
2023-03-03T02:59:23.220Z,934.39
2023-03-03T03:00:23.234Z,934.40
2023-03-03T03:01:23.393Z,934.37
2023-03-03T03:02:23.296Z,934.38
2023-03-03T03:03:23.308Z,934.38
2023-03-03T03:04:23.401Z,934.32
2023-03-03T03:05:23.346Z,934.35
2023-03-03T03:06:23.322Z,934.31
2023-03-03T03:07:23.348Z,934.30
2023-03-03T03:08:23.364Z,934.32
2023-03-03T03:09:23.383Z,934.33
2023-03-03T03:10:23.391Z,934.31
2023-03-03T03:11:23.417Z,934.28
2023-03-03T03:12:23.422Z,934.31
2023-03-03T03:13:23.439Z,934.28
2023-03-03T03:14:23.454Z,934.29
2023-03-03T03:15:23.480Z,934.30
2023-03-03T03:16:23.513Z,934.28
2023-03-03T03:17:23.504Z,934.29
2023-03-03T03:18:23.540Z,934.28
2023-03-03T03:19:23.546Z,934.26
2023-03-03T03:20:23.553Z,934.29
2023-03-03T03:21:23.571Z,934.30
2023-03-03T03:22:23.586Z,934.28
2023-03-03T03:23:23.604Z,934.27
2023-03-03T03:24:23.619Z,934.26
2023-03-03T03:25:23.636Z,934.27
2023-03-03T03:26:23.672Z,934.26
2023-03-03T03:27:23.669Z,934.23
2023-03-03T03:28:23.685Z,934.22
2023-03-03T03:29:23.712Z,934.28
2023-03-03T03:30:23.729Z,934.25
2023-03-03T03:31:23.754Z,934.24
2023-03-03T03:32:23.773Z,934.22
2023-03-03T03:33:23.775Z,934.21
2023-03-03T03:34:23.816Z,934.22
2023-03-03T03:35:23.833Z,934.17
2023-03-03T03:36:23.834Z,934.16
2023-03-03T03:37:23.863Z,934.16
2023-03-03T03:38:23.866Z,934.15
2023-03-03T03:39:23.874Z,934.13
2023-03-03T03:40:23.893Z,934.11
2023-03-03T03:41:23.906Z,934.11
2023-03-03T03:42:23.915Z,934.09
2023-03-03T03:43:23.932Z,934.10
2023-03-03T03:44:23.965Z,934.06
2023-03-03T03:45:23.978Z,934.04
2023-03-03T03:46:24.041Z,933.99
2023-03-03T03:47:24.000Z,933.98
2023-03-03T03:48:24.015Z,934.00
2023-03-03T03:49:24.048Z,933.98
2023-03-03T03:50:24.074Z,933.97
2023-03-03T03:51:24.072Z,933.95
2023-03-03T03:52:24.081Z,933.93
2023-03-03T03:53:24.101Z,933.92
2023-03-03T03:54:24.119Z,933.90
2023-03-03T03:55:24.134Z,933.94
2023-03-03T03:56:24.166Z,933.89
2023-03-03T03:57:26.581Z,933.89
2023-03-03T03:58:24.188Z,933.85
2023-03-03T03:59:24.203Z,933.85
2023-03-03T04:00:24.225Z,933.81
2023-03-03T04:01:24.233Z,933.81
2023-03-03T04:02:24.365Z,933.80
2023-03-03T04:03:24.418Z,933.79
2023-03-03T04:04:24.293Z,933.77
2023-03-03T04:05:24.300Z,933.77
2023-03-03T04:06:24.340Z,933.77
2023-03-03T04:07:24.333Z,933.76
2023-03-03T04:08:24.360Z,933.75
2023-03-03T04:09:24.365Z,933.72
2023-03-03T04:10:24.382Z,933.72
2023-03-03T04:11:24.409Z,933.71
2023-03-03T04:12:24.428Z,933.70
2023-03-03T04:13:24.454Z,933.72
2023-03-03T04:14:24.453Z,933.67
2023-03-03T04:15:24.475Z,933.62
2023-03-03T04:16:24.496Z,933.63
2023-03-03T04:17:24.507Z,933.60
2023-03-03T04:18:24.523Z,933.63
2023-03-03T04:19:24.536Z,933.62
2023-03-03T04:20:24.562Z,933.63
2023-03-03T04:21:24.575Z,933.62
2023-03-03T04:22:24.612Z,933.63
2023-03-03T04:23:24.614Z,933.65
2023-03-03T04:24:24.618Z,933.63
2023-03-03T04:25:24.634Z,933.64
2023-03-03T04:26:24.654Z,933.63
2023-03-03T04:27:24.671Z,933.69
2023-03-03T04:28:24.681Z,933.63
2023-03-03T04:29:24.701Z,933.63
2023-03-03T04:30:24.723Z,933.60
2023-03-03T04:31:24.755Z,933.61
2023-03-03T04:32:24.814Z,933.58
2023-03-03T04:33:24.760Z,933.55
2023-03-03T04:34:24.786Z,933.54
2023-03-03T04:35:24.822Z,933.55
2023-03-03T04:36:24.815Z,933.52
2023-03-03T04:37:24.825Z,933.53
2023-03-03T04:38:24.871Z,933.51
2023-03-03T04:39:24.866Z,933.49
2023-03-03T04:40:24.881Z,933.47
2023-03-03T04:41:24.903Z,933.47
2023-03-03T04:42:24.915Z,933.46
2023-03-03T04:43:24.935Z,933.46
2023-03-03T04:44:24.956Z,933.41
2023-03-03T04:45:24.979Z,933.41
2023-03-03T04:46:25.067Z,933.39
2023-03-03T04:47:25.000Z,933.41
2023-03-03T04:48:25.013Z,933.39
2023-03-03T04:49:25.024Z,933.41
2023-03-03T04:50:25.038Z,933.40
2023-03-03T04:51:25.063Z,933.40
2023-03-03T04:52:25.077Z,933.40
2023-03-03T04:53:25.095Z,933.40
2023-03-03T04:54:25.127Z,933.42
2023-03-03T04:55:25.132Z,933.39
2023-03-03T04:56:25.144Z,933.38
2023-03-03T04:57:25.164Z,933.38
2023-03-03T04:58:25.180Z,933.35
2023-03-03T04:59:25.187Z,933.34
2023-03-03T05:00:25.218Z,933.35
2023-03-03T05:01:25.257Z,933.35
2023-03-03T05:02:25.247Z,933.31
2023-03-03T05:03:25.255Z,933.27
2023-03-03T05:04:25.288Z,933.31
2023-03-03T05:05:25.320Z,933.26
2023-03-03T05:06:25.375Z,933.25
2023-03-03T05:07:25.317Z,933.23
2023-03-03T05:08:25.350Z,933.20
2023-03-03T05:09:25.420Z,933.22
2023-03-03T05:10:25.495Z,933.21
2023-03-03T05:11:25.414Z,933.20
2023-03-03T05:12:25.446Z,933.18
2023-03-03T05:13:25.419Z,933.12
2023-03-03T05:14:25.483Z,933.16
2023-03-03T05:15:25.463Z,933.18
2023-03-03T05:16:25.602Z,933.13
2023-03-03T05:17:25.475Z,933.16
2023-03-03T05:18:25.522Z,933.17
2023-03-03T05:19:25.501Z,933.20
2023-03-03T05:20:25.524Z,933.16
2023-03-03T05:21:25.537Z,933.15
2023-03-03T05:22:25.550Z,933.15
2023-03-03T05:23:25.566Z,933.13
2023-03-03T05:24:25.580Z,933.12
2023-03-03T05:25:25.601Z,933.09
2023-03-03T05:26:25.641Z,933.03
2023-03-03T05:27:25.631Z,933.06
2023-03-03T05:28:25.652Z,933.04
2023-03-03T05:29:25.670Z,933.05
2023-03-03T05:30:25.679Z,932.98
2023-03-03T05:31:25.704Z,932.99
2023-03-03T05:32:25.781Z,932.97
2023-03-03T05:33:25.734Z,932.98
2023-03-03T05:34:25.749Z,932.92
2023-03-03T05:35:25.801Z,932.92
2023-03-03T05:36:25.785Z,932.87
2023-03-03T05:37:25.799Z,932.88
2023-03-03T05:38:25.816Z,932.85
2023-03-03T05:39:25.824Z,932.81
2023-03-03T05:40:25.849Z,932.80
2023-03-03T05:41:25.866Z,932.77
2023-03-03T05:42:25.936Z,932.75
2023-03-03T05:43:25.893Z,932.73
2023-03-03T05:44:25.913Z,932.73
2023-03-03T05:45:25.925Z,932.70
2023-03-03T05:46:25.971Z,932.71
2023-03-03T05:47:25.955Z,932.73
2023-03-03T05:48:25.981Z,932.74
2023-03-03T05:49:25.987Z,932.73
2023-03-03T05:50:26.014Z,932.75
2023-03-03T05:51:26.020Z,932.70
2023-03-03T05:52:26.049Z,932.72
2023-03-03T05:53:26.061Z,932.71
2023-03-03T05:54:26.069Z,932.68
2023-03-03T05:55:26.086Z,932.67
2023-03-03T05:56:26.101Z,932.66
2023-03-03T05:57:26.121Z,932.71
2023-03-03T05:58:26.155Z,932.71
2023-03-03T05:59:26.150Z,932.69
2023-03-03T06:00:26.181Z,932.73
2023-03-03T06:01:26.186Z,932.76
2023-03-03T06:02:26.210Z,932.74
2023-03-03T06:03:26.220Z,932.72
2023-03-03T06:04:26.263Z,932.74
2023-03-03T06:05:26.256Z,932.76
2023-03-03T06:06:26.272Z,932.76
2023-03-03T06:07:26.300Z,932.73
2023-03-03T06:08:26.298Z,932.74
2023-03-03T06:09:26.321Z,932.72
2023-03-03T06:10:26.344Z,932.70
2023-03-03T06:11:26.349Z,932.69
2023-03-03T06:12:26.363Z,932.70
2023-03-03T06:13:26.393Z,932.69
2023-03-03T06:14:27.262Z,932.67
2023-03-03T06:15:26.422Z,932.63
2023-03-03T06:16:26.523Z,932.61
2023-03-03T06:17:26.452Z,932.64
2023-03-03T06:18:26.472Z,932.62
2023-03-03T06:19:26.498Z,932.62
2023-03-03T06:20:26.504Z,932.58
2023-03-03T06:21:26.539Z,932.63
2023-03-03T06:22:26.536Z,932.60
2023-03-03T06:23:26.549Z,932.56
2023-03-03T06:24:26.566Z,932.57
2023-03-03T06:25:26.576Z,932.55
2023-03-03T06:26:26.600Z,932.55
2023-03-03T06:27:26.617Z,932.52
2023-03-03T06:28:26.630Z,932.52
2023-03-03T06:29:26.647Z,932.56
2023-03-03T06:30:26.677Z,932.53
2023-03-03T06:31:26.700Z,932.52
2023-03-03T06:32:26.774Z,932.50
2023-03-03T06:33:26.704Z,932.49
2023-03-03T06:34:26.728Z,932.46
2023-03-03T06:35:26.760Z,932.47
2023-03-03T06:36:26.762Z,932.48
2023-03-03T06:37:26.769Z,932.49
2023-03-03T06:38:26.785Z,932.44
2023-03-03T06:39:26.800Z,932.46
2023-03-03T06:40:26.821Z,932.49
2023-03-03T06:41:26.839Z,932.50
2023-03-03T06:42:26.860Z,932.51
2023-03-03T06:43:26.867Z,932.49
2023-03-03T06:44:28.737Z,932.52
2023-03-03T06:45:26.908Z,932.52
2023-03-03T06:46:26.931Z,932.53
2023-03-03T06:47:26.934Z,932.51
2023-03-03T06:48:26.944Z,932.59
2023-03-03T06:49:26.967Z,932.59
2023-03-03T06:50:26.977Z,932.55
2023-03-03T06:51:27.000Z,932.59
2023-03-03T06:52:27.013Z,932.59
2023-03-03T06:53:27.032Z,932.58
2023-03-03T06:54:30.284Z,932.59
2023-03-03T06:55:27.057Z,932.62
2023-03-03T06:56:27.093Z,932.61
2023-03-03T06:57:27.107Z,932.59
2023-03-03T06:58:27.114Z,932.62
2023-03-03T06:59:27.132Z,932.63
2023-03-03T07:00:29.573Z,932.66
2023-03-03T07:01:27.217Z,932.67
2023-03-03T07:02:27.196Z,932.70
2023-03-03T07:03:27.197Z,932.69
2023-03-03T07:04:27.297Z,932.67
2023-03-03T07:05:27.237Z,932.71
2023-03-03T07:06:27.240Z,932.67
2023-03-03T07:07:27.260Z,932.69
2023-03-03T07:08:27.273Z,932.69
2023-03-03T07:09:27.298Z,932.68
2023-03-03T07:10:27.319Z,932.67
2023-03-03T07:11:27.331Z,932.74
2023-03-03T07:12:27.352Z,932.72
2023-03-03T07:13:27.374Z,932.75
2023-03-03T07:14:27.374Z,932.78
2023-03-03T07:15:27.391Z,932.74
2023-03-03T07:16:27.478Z,932.77
2023-03-03T07:17:27.431Z,932.77
2023-03-03T07:18:27.469Z,932.74
2023-03-03T07:19:27.472Z,932.73
2023-03-03T07:20:28.283Z,932.75
2023-03-03T07:21:27.496Z,932.75
2023-03-03T07:22:27.512Z,932.71
2023-03-03T07:23:27.529Z,932.74
2023-03-03T07:24:27.546Z,932.67
2023-03-03T07:25:27.557Z,932.67
2023-03-03T07:26:27.579Z,932.68
2023-03-03T07:27:27.594Z,932.65
2023-03-03T07:28:27.610Z,932.69
2023-03-03T07:29:27.629Z,932.68
2023-03-03T07:30:27.633Z,932.68
2023-03-03T07:31:27.682Z,932.69
2023-03-03T07:32:27.759Z,932.73
2023-03-03T07:33:27.719Z,932.70
2023-03-03T07:34:27.741Z,932.74
2023-03-03T07:35:27.752Z,932.76
2023-03-03T07:36:27.738Z,932.79
2023-03-03T07:37:27.755Z,932.84
2023-03-03T07:38:27.766Z,932.84
2023-03-03T07:39:27.787Z,932.86
2023-03-03T07:40:27.809Z,932.90
2023-03-03T07:41:27.822Z,932.90
2023-03-03T07:42:27.898Z,932.92
2023-03-03T07:43:27.851Z,932.96
2023-03-03T07:44:27.870Z,933.01
2023-03-03T07:45:27.888Z,932.98
2023-03-03T07:46:28.029Z,933.03
2023-03-03T07:47:27.913Z,933.03
2023-03-03T07:48:27.937Z,933.07
2023-03-03T07:49:27.951Z,933.06
2023-03-03T07:50:28.131Z,933.03
2023-03-03T07:51:27.982Z,933.07
2023-03-03T07:52:27.995Z,933.07
2023-03-03T07:53:28.044Z,933.08
2023-03-03T07:54:28.040Z,933.13
2023-03-03T07:55:28.050Z,933.11
2023-03-03T07:56:28.066Z,933.07
2023-03-03T07:57:28.102Z,933.09
2023-03-03T07:58:28.109Z,933.09
2023-03-03T07:59:28.118Z,933.08
2023-03-03T08:00:28.207Z,933.10
2023-03-03T08:01:28.148Z,933.06
2023-03-03T08:02:28.158Z,933.12
2023-03-03T08:03:28.182Z,933.07
2023-03-03T08:04:28.331Z,933.10
2023-03-03T08:05:28.307Z,933.09
2023-03-03T08:06:28.256Z,933.08
2023-03-03T08:07:28.244Z,933.06
2023-03-03T08:08:28.253Z,933.10
2023-03-03T08:09:28.278Z,933.13
2023-03-03T08:10:28.464Z,933.19
2023-03-03T08:11:28.298Z,933.17
2023-03-03T08:12:28.314Z,933.17
2023-03-03T08:13:28.344Z,933.18
2023-03-03T08:14:28.398Z,933.14
2023-03-03T08:15:28.364Z,933.19
2023-03-03T08:16:28.371Z,933.15
2023-03-03T08:17:28.396Z,933.14
2023-03-03T08:18:28.410Z,933.19
2023-03-03T08:19:28.416Z,933.18
2023-03-03T08:20:28.465Z,933.15
2023-03-03T08:21:28.448Z,933.15
2023-03-03T08:22:28.481Z,933.13
2023-03-03T08:23:28.481Z,933.13
2023-03-03T08:24:28.493Z,933.12
2023-03-03T08:25:28.508Z,933.15
2023-03-03T08:26:28.536Z,933.11
2023-03-03T08:27:28.538Z,933.12
2023-03-03T08:28:28.554Z,933.12
2023-03-03T08:29:28.578Z,933.11
2023-03-03T08:30:28.600Z,933.11
2023-03-03T08:31:40.653Z,933.14
2023-03-03T08:32:28.857Z,933.13
2023-03-03T08:33:28.640Z,933.13
2023-03-03T08:34:28.659Z,933.10
2023-03-03T08:35:28.698Z,933.15
2023-03-03T08:36:28.685Z,933.12
2023-03-03T08:37:28.704Z,933.14
2023-03-03T08:38:28.738Z,933.17
2023-03-03T08:39:28.735Z,933.17
2023-03-03T08:40:28.745Z,933.18
2023-03-03T08:41:28.767Z,933.18
2023-03-03T08:42:28.776Z,933.21
2023-03-03T08:43:28.796Z,933.18
2023-03-03T08:44:28.806Z,933.19
2023-03-03T08:45:28.831Z,933.20
2023-03-03T08:46:28.939Z,933.18
2023-03-03T08:47:28.871Z,933.17
2023-03-03T08:48:28.874Z,933.15
2023-03-03T08:49:28.898Z,933.15
2023-03-03T08:50:28.905Z,933.12
2023-03-03T08:51:28.931Z,933.13
2023-03-03T08:52:28.942Z,933.13
2023-03-03T08:53:28.974Z,933.14
2023-03-03T08:54:29.002Z,933.12
2023-03-03T08:55:28.995Z,933.16
2023-03-03T08:56:29.008Z,933.09
2023-03-03T08:57:29.026Z,933.12
2023-03-03T08:58:35.080Z,933.13
2023-03-03T08:59:29.050Z,933.11
2023-03-03T09:00:29.074Z,933.11
2023-03-03T09:01:29.193Z,933.14
2023-03-03T09:02:29.099Z,933.13
2023-03-03T09:03:29.118Z,933.16
2023-03-03T09:04:29.159Z,933.13
2023-03-03T09:05:29.158Z,933.15
2023-03-03T09:06:29.206Z,933.22
2023-03-03T09:07:29.187Z,933.22
2023-03-03T09:08:29.211Z,933.22
2023-03-03T09:09:29.212Z,933.22
2023-03-03T09:10:29.280Z,933.21
2023-03-03T09:11:29.264Z,933.24
2023-03-03T09:12:29.265Z,933.22
2023-03-03T09:13:29.276Z,933.22
2023-03-03T09:14:29.297Z,933.28
2023-03-03T09:15:29.320Z,933.28
2023-03-03T09:16:29.322Z,933.28
2023-03-03T09:17:29.339Z,933.31
2023-03-03T09:18:29.361Z,933.36
2023-03-03T09:19:29.371Z,933.36
2023-03-03T09:20:29.394Z,933.37
2023-03-03T09:21:29.410Z,933.42
2023-03-03T09:22:29.422Z,933.41
2023-03-03T09:23:29.436Z,933.41
2023-03-03T09:24:29.455Z,933.38
2023-03-03T09:25:29.473Z,933.42
2023-03-03T09:26:29.507Z,933.39
2023-03-03T09:27:29.507Z,933.43
2023-03-03T09:28:29.630Z,933.44
2023-03-03T09:29:29.554Z,933.46
2023-03-03T09:30:29.557Z,933.47
2023-03-03T09:31:29.672Z,933.47
2023-03-03T09:32:29.594Z,933.52
2023-03-03T09:33:29.603Z,933.50
2023-03-03T09:34:29.616Z,933.53
2023-03-03T09:35:29.671Z,933.51
2023-03-03T09:36:29.648Z,933.51
2023-03-03T09:37:29.665Z,933.54
2023-03-03T09:38:29.682Z,933.52
2023-03-03T09:39:29.693Z,933.52
2023-03-03T09:40:29.714Z,933.49
2023-03-03T09:41:29.729Z,933.47
2023-03-03T09:42:29.765Z,933.47
2023-03-03T09:43:29.757Z,933.49
2023-03-03T09:44:29.770Z,933.47
2023-03-03T09:45:29.795Z,933.51
2023-03-03T09:46:29.834Z,933.51
2023-03-03T09:47:29.833Z,933.51
2023-03-03T09:48:29.834Z,933.49
2023-03-03T09:49:29.848Z,933.53
2023-03-03T09:50:29.870Z,933.55
2023-03-03T09:51:29.888Z,933.55
2023-03-03T09:52:29.930Z,933.56
2023-03-03T09:53:29.912Z,933.62
2023-03-03T09:54:31.073Z,933.56
2023-03-03T09:55:29.961Z,933.58
2023-03-03T09:56:29.969Z,933.63
2023-03-03T09:57:29.977Z,933.61
2023-03-03T09:58:30.017Z,933.60
2023-03-03T09:59:30.009Z,933.62
2023-03-03T10:00:30.025Z,933.60
2023-03-03T10:01:30.047Z,933.61
2023-03-03T10:02:30.065Z,933.66
2023-03-03T10:03:30.172Z,933.63
2023-03-03T10:04:30.089Z,933.66
2023-03-03T10:05:30.144Z,933.67
2023-03-03T10:06:30.127Z,933.68
2023-03-03T10:07:30.143Z,933.72
2023-03-03T10:08:31.699Z,933.76
2023-03-03T10:09:30.177Z,933.71
2023-03-03T10:10:30.184Z,933.79
2023-03-03T10:11:30.199Z,933.81
2023-03-03T10:12:30.217Z,933.82
2023-03-03T10:13:30.239Z,933.84
2023-03-03T10:14:30.275Z,933.84
2023-03-03T10:15:30.269Z,933.87
2023-03-03T10:16:30.375Z,933.89
2023-03-03T10:17:30.297Z,933.90
2023-03-03T10:18:32.928Z,933.85
2023-03-03T10:19:30.331Z,933.89
2023-03-03T10:20:40.519Z,933.90
2023-03-03T10:21:30.367Z,933.87
2023-03-03T10:22:30.385Z,933.85
2023-03-03T10:23:30.408Z,933.87
2023-03-03T10:24:30.411Z,933.84
2023-03-03T10:25:30.430Z,933.79
2023-03-03T10:26:43.908Z,933.82
2023-03-03T10:27:30.454Z,933.84
2023-03-03T10:28:30.497Z,933.83
2023-03-03T10:29:31.126Z,933.81
2023-03-03T10:30:41.072Z,933.84
2023-03-03T10:31:30.542Z,933.86
2023-03-03T10:32:30.772Z,933.89
2023-03-03T10:33:30.741Z,933.89
2023-03-03T10:34:30.570Z,933.91
2023-03-03T10:35:30.601Z,933.94
2023-03-03T10:36:30.927Z,933.92
2023-03-03T10:37:30.614Z,933.98
2023-03-03T10:38:31.152Z,933.96
2023-03-03T10:39:30.657Z,933.99
2023-03-03T10:40:30.668Z,934.02
2023-03-03T10:41:30.677Z,934.03
2023-03-03T10:42:30.695Z,934.05
2023-03-03T10:43:32.411Z,934.07
2023-03-03T10:44:30.740Z,934.11
2023-03-03T10:45:30.781Z,934.15
2023-03-03T10:46:30.825Z,934.16
2023-03-03T10:47:30.772Z,934.21
2023-03-03T10:48:30.791Z,934.19
2023-03-03T10:49:30.810Z,934.19
2023-03-03T10:50:30.826Z,934.19
2023-03-03T10:51:30.840Z,934.20
2023-03-03T10:52:30.859Z,934.17
2023-03-03T10:53:30.885Z,934.17
2023-03-03T10:54:30.883Z,934.18
2023-03-03T10:55:30.900Z,934.16
2023-03-03T10:56:32.144Z,934.18
2023-03-03T10:57:30.939Z,934.23
2023-03-03T10:58:30.975Z,934.24
2023-03-03T10:59:30.972Z,934.24
2023-03-03T11:00:30.991Z,934.22
2023-03-03T11:01:31.140Z,934.18
2023-03-03T11:02:31.032Z,934.22
2023-03-03T11:03:31.029Z,934.23
2023-03-03T11:04:31.100Z,934.18
2023-03-03T11:05:31.070Z,934.18
2023-03-03T11:06:31.089Z,934.16
2023-03-03T11:07:31.095Z,934.19
2023-03-03T11:08:31.110Z,934.18
2023-03-03T11:09:31.135Z,934.20
2023-03-03T11:10:31.141Z,934.20
2023-03-03T11:11:31.166Z,934.18
2023-03-03T11:12:31.173Z,934.23
2023-03-03T11:13:31.196Z,934.20
2023-03-03T11:14:31.215Z,934.18
2023-03-03T11:15:31.229Z,934.22
2023-03-03T11:16:31.260Z,934.23
2023-03-03T11:17:31.253Z,934.18
2023-03-03T11:18:31.305Z,934.22
2023-03-03T11:19:31.299Z,934.20
2023-03-03T11:20:31.302Z,934.18
2023-03-03T11:21:31.329Z,934.20
2023-03-03T11:22:31.339Z,934.20
2023-03-03T11:23:31.358Z,934.21
2023-03-03T11:24:31.374Z,934.19
2023-03-03T11:25:31.389Z,934.14
2023-03-03T11:26:31.398Z,934.15
2023-03-03T11:27:31.414Z,934.17
2023-03-03T11:28:31.436Z,934.19
2023-03-03T11:29:31.446Z,934.18
2023-03-03T11:30:31.571Z,934.20
2023-03-03T11:31:32.115Z,934.14
2023-03-03T11:32:31.504Z,934.15
2023-03-03T11:33:31.514Z,934.13
2023-03-03T11:34:31.572Z,934.16
2023-03-03T11:35:31.557Z,934.15
2023-03-03T11:36:33.326Z,934.13
2023-03-03T11:37:31.580Z,934.13
2023-03-03T11:38:31.597Z,934.15
2023-03-03T11:39:31.616Z,934.16
2023-03-03T11:40:31.622Z,934.15
2023-03-03T11:41:31.660Z,934.13
2023-03-03T11:42:31.655Z,934.14
2023-03-03T11:43:37.139Z,934.13
2023-03-03T11:44:31.688Z,934.13
2023-03-03T11:45:31.702Z,934.15
2023-03-03T11:46:31.757Z,934.15
2023-03-03T11:47:32.178Z,934.18
2023-03-03T11:48:31.752Z,934.16
2023-03-03T11:49:31.771Z,934.18
2023-03-03T11:50:31.826Z,934.18
2023-03-03T11:51:31.807Z,934.22
2023-03-03T11:52:31.831Z,934.24
2023-03-03T11:53:31.839Z,934.26
2023-03-03T11:54:31.850Z,934.26
2023-03-03T11:55:31.876Z,934.29
2023-03-03T11:56:31.878Z,934.24
2023-03-03T11:57:31.909Z,934.27
2023-03-03T11:58:31.916Z,934.27
2023-03-03T11:59:31.934Z,934.31
2023-03-03T12:00:31.940Z,934.36
2023-03-03T12:01:31.960Z,934.31
2023-03-03T12:02:32.074Z,934.32
2023-03-03T12:03:32.001Z,934.29
2023-03-03T12:04:32.008Z,934.27
2023-03-03T12:05:32.105Z,934.29
2023-03-03T12:06:32.064Z,934.25
2023-03-03T12:07:32.060Z,934.26
2023-03-03T12:08:32.071Z,934.26
2023-03-03T12:09:32.093Z,934.25
2023-03-03T12:10:32.101Z,934.30
2023-03-03T12:11:32.117Z,934.28
2023-03-03T12:12:32.134Z,934.26
2023-03-03T12:13:32.155Z,934.27
2023-03-03T12:14:32.164Z,934.28
2023-03-03T12:15:32.210Z,934.24
2023-03-03T12:16:32.207Z,934.24
2023-03-03T12:17:32.220Z,934.29
2023-03-03T12:18:32.227Z,934.29
2023-03-03T12:19:32.254Z,934.29
2023-03-03T12:20:32.260Z,934.28
2023-03-03T12:21:32.278Z,934.26
2023-03-03T12:22:32.324Z,934.28
2023-03-03T12:23:32.308Z,934.24
2023-03-03T12:24:32.324Z,934.27
2023-03-03T12:25:32.353Z,934.27
2023-03-03T12:26:32.366Z,934.27
2023-03-03T12:27:32.380Z,934.27
2023-03-03T12:28:32.405Z,934.22